Time;durP1;ratioP1;P1;durP2;ratioP2;P2;SDS_P1;SDS_P2;PMS_P1;PMS_P2;Temp;Humidity;BMP_temperature;BMP_pressure;BME280_temperature;BME280_humidity;BME280_pressure;Samples;Min_cycle;Max_cycle;Signal;HPM_P1;HPM_P2
2022/03/16 00:00:13;;;;;;;33.13;19.17;;;5.60;99.90;;;;;;5038781;28;20232;-72
2022/03/16 00:02:44;;;;;;;29.25;18.23;;;5.50;99.90;;;;;;5038478;28;20307;-71
2022/03/16 00:05:12;;;;;;;38.55;18.65;;;5.50;99.90;;;;;;5043362;28;20456;-71
2022/03/16 00:07:41;;;;;;;30.33;18.33;;;5.40;99.90;;;;;;5044799;28;20202;-73
2022/03/16 00:10:10;;;;;;;36.90;17.23;;;5.40;99.90;;;;;;5046140;28;20836;-73
2022/03/16 00:12:40;;;;;;;31.95;17.45;;;5.40;99.90;;;;;;5045267;28;20200;-72
2022/03/16 00:15:08;;;;;;;25.30;17.40;;;5.30;99.90;;;;;;5044484;28;20223;-74
2022/03/16 00:17:36;;;;;;;34.65;18.33;;;5.40;99.90;;;;;;5042538;28;20209;-73
2022/03/16 00:20:05;;;;;;;29.70;17.23;;;5.30;99.90;;;;;;5039310;28;20313;-73
2022/03/16 00:22:33;;;;;;;28.58;16.25;;;5.30;99.90;;;;;;5038889;28;20222;-73
2022/03/16 00:25:04;;;;;;;28.70;17.02;;;5.20;99.90;;;;;;5038608;28;20217;-72
2022/03/16 00:27:33;;;;;;;30.42;17.02;;;5.20;99.90;;;;;;5039384;28;20197;-72
2022/03/16 00:30:01;;;;;;;31.30;18.30;;;5.20;99.90;;;;;;5038971;28;20225;-72
2022/03/16 00:32:29;;;;;;;27.10;15.32;;;5.20;99.90;;;;;;5038687;28;20206;-74
2022/03/16 00:34:57;;;;;;;34.88;18.05;;;5.20;99.90;;;;;;5038742;28;20204;-73
2022/03/16 00:37:24;;;;;;;31.88;18.33;;;5.10;99.90;;;;;;5038021;28;20911;-73
2022/03/16 00:39:52;;;;;;;30.42;16.75;;;5.10;99.90;;;;;;5038572;28;20224;-73
2022/03/16 00:42:21;;;;;;;28.10;16.33;;;5.00;99.90;;;;;;5038438;28;20731;-73
2022/03/16 00:44:49;;;;;;;33.15;16.95;;;5.00;99.90;;;;;;5038219;28;20232;-73
2022/03/16 00:47:17;;;;;;;32.53;17.75;;;4.90;99.90;;;;;;5038856;28;20209;-73
2022/03/16 00:49:44;;;;;;;31.30;15.60;;;4.90;99.90;;;;;;5043027;28;20217;-74
2022/03/16 00:52:12;;;;;;;32.15;16.65;;;4.90;99.90;;;;;;5042531;28;20289;-73
2022/03/16 00:54:40;;;;;;;31.73;15.88;;;4.90;99.90;;;;;;5042234;28;20198;-73
2022/03/16 00:57:08;;;;;;;32.88;16.67;;;4.90;99.90;;;;;;5041906;28;20676;-73
2022/03/16 00:59:41;;;;;;;35.25;16.33;;;4.90;99.90;;;;;;5040324;28;20473;-74
2022/03/16 01:02:09;;;;;;;29.27;17.45;;;4.80;99.90;;;;;;5042331;28;20219;-71
2022/03/16 01:04:37;;;;;;;31.05;16.98;;;4.80;99.90;;;;;;5042748;28;20202;-69
2022/03/16 01:07:05;;;;;;;33.85;18.08;;;4.90;99.90;;;;;;5041554;28;20201;-71
2022/03/16 01:09:34;;;;;;;39.22;17.33;;;5.00;99.90;;;;;;5041650;28;20593;-71
2022/03/16 01:12:02;;;;;;;39.35;17.95;;;5.10;99.90;;;;;;5041617;28;20206;-70
2022/03/16 01:14:30;;;;;;;41.72;17.75;;;5.10;99.90;;;;;;5041278;28;20702;-71
2022/03/16 01:17:00;;;;;;;36.65;18.77;;;5.20;99.90;;;;;;5041545;28;20736;-72
2022/03/16 01:19:29;;;;;;;35.92;17.60;;;5.30;99.90;;;;;;5041468;28;20731;-73
2022/03/16 01:21:57;;;;;;;33.28;17.77;;;5.30;99.90;;;;;;5041123;28;20671;-73
2022/03/16 01:24:25;;;;;;;35.28;19.85;;;5.40;99.90;;;;;;5040717;28;20672;-73
2022/03/16 01:26:53;;;;;;;37.45;19.98;;;5.50;99.90;;;;;;5041171;28;20298;-71
2022/03/16 01:29:21;;;;;;;35.95;18.95;;;5.60;99.90;;;;;;5040908;28;20417;-71
2022/03/16 01:31:49;;;;;;;30.35;18.63;;;5.80;99.90;;;;;;5040612;28;20891;-72
2022/03/16 01:34:18;;;;;;;32.45;19.60;;;5.90;99.90;;;;;;5040642;28;20480;-71
2022/03/16 01:36:46;;;;;;;39.40;20.73;;;6.00;99.90;;;;;;5040962;28;20817;-69
2022/03/16 01:39:14;;;;;;;38.63;20.77;;;6.00;99.90;;;;;;5040652;28;20216;-71
2022/03/16 01:41:42;;;;;;;37.47;20.98;;;6.10;99.90;;;;;;5040902;28;20657;-71
2022/03/16 01:44:11;;;;;;;41.72;21.65;;;6.20;99.90;;;;;;5040602;28;20742;-69
2022/03/16 01:46:39;;;;;;;41.78;20.83;;;6.30;99.90;;;;;;5040660;28;20335;-74
2022/03/16 01:49:07;;;;;;;38.05;20.50;;;6.40;99.90;;;;;;5040824;28;20357;-72
2022/03/16 01:51:36;;;;;;;34.78;21.08;;;6.50;99.90;;;;;;5040690;28;20289;-73
2022/03/16 01:54:05;;;;;;;42.53;23.27;;;6.50;99.90;;;;;;5040379;28;20194;-73
2022/03/16 01:56:32;;;;;;;44.55;24.08;;;6.60;99.90;;;;;;5040798;28;20198;-72
2022/03/16 01:59:00;;;;;;;51.10;25.77;;;6.70;99.90;;;;;;5040069;28;20198;-72
2022/03/16 02:01:28;;;;;;;42.63;22.40;;;6.70;99.90;;;;;;5040757;28;20487;-71
2022/03/16 02:03:56;;;;;;;46.30;23.85;;;6.80;99.90;;;;;;5040980;28;20476;-72
2022/03/16 02:06:24;;;;;;;41.55;24.83;;;6.80;99.90;;;;;;5040266;28;20684;-72
2022/03/16 02:08:53;;;;;;;40.65;23.23;;;6.80;99.90;;;;;;5040212;28;20557;-71
2022/03/16 02:11:21;;;;;;;39.80;23.17;;;6.80;99.90;;;;;;5040050;28;20279;-71
2022/03/16 02:13:49;;;;;;;38.38;22.80;;;6.90;99.90;;;;;;5039919;28;20204;-71
2022/03/16 02:16:16;;;;;;;42.60;23.48;;;6.80;99.90;;;;;;5039781;28;20611;-70
2022/03/16 02:18:44;;;;;;;43.03;24.40;;;6.80;99.90;;;;;;5040231;28;20209;-71
2022/03/16 02:21:15;;;;;;;40.30;24.08;;;6.80;99.90;;;;;;5039922;28;20226;-70
2022/03/16 02:23:44;;;;;;;44.67;25.35;;;6.80;99.90;;;;;;5051913;28;20418;-70
2022/03/16 02:26:12;;;;;;;40.85;22.95;;;6.80;99.90;;;;;;5040973;28;20198;-70
2022/03/16 02:28:40;;;;;;;43.88;23.92;;;6.80;99.90;;;;;;5039748;28;20428;-70
2022/03/16 02:31:08;;;;;;;36.63;23.67;;;6.80;99.90;;;;;;5039602;28;20724;-70
2022/03/16 02:33:36;;;;;;;43.80;23.50;;;6.80;99.90;;;;;;5039499;28;20194;-71
2022/03/16 02:36:04;;;;;;;42.47;23.30;;;6.80;99.90;;;;;;5039609;28;20212;-71
2022/03/16 02:38:31;;;;;;;45.22;22.40;;;6.80;99.90;;;;;;5040010;28;20209;-70
2022/03/16 02:41:01;;;;;;;40.10;22.15;;;6.80;99.90;;;;;;5039643;28;20226;-70
2022/03/16 02:43:28;;;;;;;38.47;22.20;;;6.80;99.90;;;;;;5039371;28;20225;-70
2022/03/16 02:45:57;;;;;;;39.53;22.58;;;6.90;99.90;;;;;;5039615;28;20208;-70
2022/03/16 02:48:24;;;;;;;37.67;21.92;;;6.80;99.90;;;;;;5039660;28;20201;-70
2022/03/16 02:50:52;;;;;;;45.80;23.50;;;6.80;99.90;;;;;;5039576;28;20587;-71
2022/03/16 02:53:20;;;;;;;38.60;22.05;;;6.70;99.90;;;;;;5039391;28;20197;-73
2022/03/16 02:55:52;;;;;;;34.22;21.67;;;6.60;99.90;;;;;;5039801;28;20211;-72
2022/03/16 02:58:22;;;;;;;42.50;22.38;;;6.50;99.90;;;;;;5039089;28;20212;-70
2022/03/16 03:00:49;;;;;;;36.20;21.23;;;6.40;99.90;;;;;;5039393;28;20591;-71
2022/03/16 03:03:18;;;;;;;42.13;21.58;;;6.30;99.90;;;;;;5039397;28;20651;-73
2022/03/16 03:05:46;;;;;;;37.65;20.52;;;6.10;99.90;;;;;;5039112;28;20206;-71
2022/03/16 03:08:14;;;;;;;41.05;19.88;;;6.00;99.90;;;;;;5038810;28;20204;-71
2022/03/16 03:10:42;;;;;;;34.53;21.67;;;5.90;99.90;;;;;;5038452;28;20225;-71
2022/03/16 03:13:11;;;;;;;35.25;20.10;;;5.80;99.90;;;;;;5038815;28;20197;-72
2022/03/16 03:15:42;;;;;;;36.70;20.50;;;5.70;99.90;;;;;;5039193;28;20459;-72
2022/03/16 03:18:10;;;;;;;36.63;19.20;;;5.60;99.90;;;;;;5039176;28;20797;-72
2022/03/16 03:20:38;;;;;;;31.05;19.58;;;5.50;99.90;;;;;;5038706;28;20617;-72
2022/03/16 03:23:06;;;;;;;33.83;19.25;;;5.40;99.90;;;;;;5038674;28;20606;-71
2022/03/16 03:25:34;;;;;;;31.92;20.10;;;5.30;99.90;;;;;;5038916;28;20763;-71
2022/03/16 03:28:02;;;;;;;42.80;22.27;;;5.20;99.90;;;;;;5038728;28;20229;-71
2022/03/16 03:30:29;;;;;;;35.85;18.67;;;5.20;99.90;;;;;;5038423;28;20313;-72
2022/03/16 03:32:59;;;;;;;30.70;19.55;;;5.20;99.90;;;;;;5038588;28;20201;-72
2022/03/16 03:35:27;;;;;;;34.28;19.85;;;5.10;99.90;;;;;;5038967;28;20198;-72
2022/03/16 03:37:54;;;;;;;37.22;19.83;;;5.10;99.90;;;;;;5038416;28;20205;-72
2022/03/16 03:40:22;;;;;;;31.48;19.70;;;5.00;99.90;;;;;;5038688;28;20408;-72
2022/03/16 03:42:51;;;;;;;35.00;20.48;;;5.00;99.90;;;;;;5038651;28;20699;-72
2022/03/16 03:45:19;;;;;;;37.38;20.55;;;5.00;99.90;;;;;;5038603;28;20221;-73
2022/03/16 03:47:47;;;;;;;35.17;19.02;;;5.00;99.90;;;;;;5038753;28;20201;-73
2022/03/16 03:50:17;;;;;;;34.50;20.65;;;5.00;99.90;;;;;;5038781;28;20371;-73
2022/03/16 03:52:44;;;;;;;40.92;19.42;;;4.90;99.90;;;;;;5038954;28;20210;-74
2022/03/16 03:55:12;;;;;;;40.72;20.30;;;4.90;99.90;;;;;;5038735;28;20400;-73
2022/03/16 03:57:40;;;;;;;41.33;22.65;;;4.80;99.90;;;;;;5039109;28;20201;-70
2022/03/16 04:00:09;;;;;;;41.08;21.90;;;4.80;99.90;;;;;;5038885;28;20533;-72
2022/03/16 04:02:37;;;;;;;36.20;21.67;;;4.70;99.90;;;;;;5038698;28;20530;-72
2022/03/16 04:05:05;;;;;;;36.78;19.50;;;4.70;99.90;;;;;;5038145;28;20256;-71
2022/03/16 04:07:34;;;;;;;43.58;20.58;;;4.70;99.90;;;;;;5038608;28;20201;-72
2022/03/16 04:10:02;;;;;;;39.85;20.08;;;4.70;99.90;;;;;;5038472;28;20222;-71
2022/03/16 04:12:30;;;;;;;38.97;21.45;;;4.60;99.90;;;;;;5038451;28;20240;-71
2022/03/16 04:14:58;;;;;;;32.95;19.25;;;4.60;99.90;;;;;;5038370;28;20205;-73
2022/03/16 04:17:26;;;;;;;42.22;21.58;;;4.50;99.90;;;;;;5038484;28;20209;-68
2022/03/16 04:19:55;;;;;;;39.58;20.33;;;4.40;99.90;;;;;;5037917;28;20295;-71
2022/03/16 04:22:26;;;;;;;35.58;19.10;;;4.40;99.90;;;;;;5038026;28;20212;-71
2022/03/16 04:24:55;;;;;;;36.28;20.05;;;4.30;99.90;;;;;;5041400;28;20217;-70
2022/03/16 04:27:29;;;;;;;37.15;21.02;;;4.30;99.90;;;;;;5042526;28;20457;-71
2022/03/16 04:29:57;;;;;;;38.58;20.95;;;4.30;99.90;;;;;;5042307;28;20221;-72
2022/03/16 04:32:30;;;;;;;36.08;20.00;;;4.30;99.90;;;;;;5041565;28;20398;-70
2022/03/16 04:34:58;;;;;;;37.33;20.02;;;4.30;99.90;;;;;;5042067;28;20430;-71
2022/03/16 04:37:25;;;;;;;40.15;20.98;;;4.30;99.90;;;;;;5042681;28;20801;-71
2022/03/16 04:39:54;;;;;;;35.60;19.20;;;4.30;99.90;;;;;;5042740;28;20263;-71
2022/03/16 04:42:24;;;;;;;41.15;19.63;;;4.30;99.90;;;;;;5042315;28;20697;-70
2022/03/16 04:44:57;;;;;;;34.00;18.83;;;4.20;99.90;;;;;;5042248;28;20220;-71
2022/03/16 04:47:25;;;;;;;50.92;21.20;;;4.20;99.90;;;;;;5042352;28;20570;-71
2022/03/16 04:49:55;;;;;;;49.47;23.33;;;4.10;99.90;;;;;;5041938;28;20491;-73
2022/03/16 04:52:25;;;;;;;41.30;20.48;;;4.10;99.90;;;;;;5042191;28;20202;-72
2022/03/16 04:54:59;;;;;;;39.78;19.52;;;4.10;99.90;;;;;;5042036;28;20292;-71
2022/03/16 04:57:32;;;;;;;36.80;21.77;;;4.10;99.90;;;;;;5042140;28;20365;-70
2022/03/16 05:00:00;;;;;;;36.13;19.65;;;4.10;99.90;;;;;;5042032;28;20228;-72
2022/03/16 05:02:28;;;;;;;39.83;18.55;;;4.00;99.90;;;;;;5042294;28;20202;-72
2022/03/16 05:04:55;;;;;;;33.50;18.98;;;4.00;99.90;;;;;;5041552;28;20217;-71
2022/03/16 05:07:23;;;;;;;34.28;20.00;;;4.00;99.90;;;;;;5042451;28;20792;-71
2022/03/16 05:09:52;;;;;;;38.03;19.95;;;4.00;99.90;;;;;;5041925;28;20222;-71
2022/03/16 05:12:23;;;;;;;40.83;19.63;;;3.90;99.90;;;;;;5041996;28;20237;-72
2022/03/16 05:14:52;;;;;;;37.78;19.50;;;3.90;99.90;;;;;;5041673;28;20194;-72
2022/03/16 05:17:20;;;;;;;38.72;19.88;;;3.90;99.90;;;;;;5041455;28;20241;-72
2022/03/16 05:19:51;;;;;;;35.60;17.88;;;3.90;99.90;;;;;;5041828;28;20819;-73
2022/03/16 05:22:22;;;;;;;40.00;20.92;;;3.90;99.90;;;;;;5042094;28;20201;-72
2022/03/16 05:24:51;;;;;;;41.20;21.95;;;3.90;99.90;;;;;;5041617;28;20222;-72
2022/03/16 05:27:21;;;;;;;38.15;20.60;;;4.00;99.90;;;;;;5042381;28;20213;-73
2022/03/16 05:29:55;;;;;;;46.78;21.25;;;4.00;99.90;;;;;;5042014;28;20225;-73
2022/03/16 05:32:23;;;;;;;39.28;21.45;;;4.00;99.90;;;;;;5041477;28;20220;-72
2022/03/16 05:34:51;;;;;;;40.78;21.42;;;4.00;99.90;;;;;;5042073;28;20820;-71
2022/03/16 05:37:19;;;;;;;41.80;22.58;;;3.90;99.90;;;;;;5041234;28;20205;-71
2022/03/16 05:39:46;;;;;;;43.35;21.88;;;3.90;99.90;;;;;;5040838;28;20245;-71
2022/03/16 05:42:14;;;;;;;38.60;20.50;;;3.90;99.90;;;;;;5041009;28;20695;-71
2022/03/16 05:44:42;;;;;;;51.35;23.17;;;3.90;99.90;;;;;;5040599;28;20487;-69
2022/03/16 05:47:12;;;;;;;38.90;19.65;;;3.80;99.90;;;;;;5054471;28;20439;-73
2022/03/16 05:49:39;;;;;;;41.60;22.15;;;3.80;99.90;;;;;;5040112;28;20376;-72
2022/03/16 05:52:10;;;;;;;40.92;21.23;;;3.80;99.90;;;;;;5040242;28;20248;-71
2022/03/16 05:54:38;;;;;;;43.60;20.23;;;3.80;99.90;;;;;;5050401;28;20819;-71
2022/03/16 05:57:13;;;;;;;39.20;21.73;;;3.80;99.90;;;;;;5062229;28;20209;-71
2022/03/16 05:59:55;;;;;;;42.63;20.02;;;3.80;99.90;;;;;;5061065;28;20728;-76
2022/03/16 06:02:24;;;;;;;48.28;23.15;;;3.80;99.90;;;;;;5058168;28;20209;-72
2022/03/16 06:04:52;;;;;;;40.92;21.40;;;3.80;99.90;;;;;;5039894;28;20582;-71
2022/03/16 06:07:19;;;;;;;47.25;23.88;;;3.80;99.90;;;;;;5040553;28;20440;-71
2022/03/16 06:09:49;;;;;;;45.55;22.60;;;3.80;99.90;;;;;;5040430;28;20226;-70
2022/03/16 06:12:21;;;;;;;54.20;25.20;;;3.80;99.90;;;;;;5040752;28;20210;-71
2022/03/16 06:14:49;;;;;;;47.78;24.77;;;3.90;99.90;;;;;;5040963;28;20201;-69
2022/03/16 06:17:17;;;;;;;52.13;24.75;;;3.90;99.90;;;;;;5042639;28;20216;-68
2022/03/16 06:20:01;;;;;;;50.50;26.67;;;3.90;99.90;;;;;;5041149;28;20271;-69
2022/03/16 06:22:29;;;;;;;50.20;28.65;;;3.90;99.90;;;;;;5039265;28;20285;-68
2022/03/16 06:24:57;;;;;;;52.28;24.50;;;4.00;99.90;;;;;;5041033;28;20356;-68
2022/03/16 06:27:25;;;;;;;59.33;25.52;;;4.00;99.90;;;;;;5040515;28;20209;-69
2022/03/16 06:29:53;;;;;;;58.75;26.92;;;4.10;99.90;;;;;;5040795;28;20225;-69
2022/03/16 06:32:20;;;;;;;47.25;24.20;;;4.10;99.90;;;;;;5040325;28;20198;-68
2022/03/16 06:34:48;;;;;;;45.50;24.73;;;4.20;99.90;;;;;;5040462;28;20246;-69
2022/03/16 06:37:17;;;;;;;47.38;23.45;;;4.30;99.90;;;;;;5040496;28;20684;-67
2022/03/16 06:39:45;;;;;;;44.58;23.95;;;4.30;99.90;;;;;;5039553;28;20221;-68
2022/03/16 06:42:13;;;;;;;51.88;24.42;;;4.50;99.90;;;;;;5040116;28;20198;-70
2022/03/16 06:44:40;;;;;;;49.67;24.00;;;4.60;99.90;;;;;;5039972;28;20233;-69
2022/03/16 06:47:08;;;;;;;50.50;23.48;;;4.80;99.90;;;;;;5038831;28;20753;-69
2022/03/16 06:49:36;;;;;;;47.85;23.23;;;5.00;99.90;;;;;;5039842;28;20279;-69
2022/03/16 06:52:04;;;;;;;39.83;22.25;;;5.20;99.90;;;;;;5042935;28;20201;-69
2022/03/16 06:54:39;;;;;;;42.55;22.23;;;5.30;99.90;;;;;;5047881;28;20201;-69
2022/03/16 06:57:07;;;;;;;39.40;22.05;;;5.50;99.90;;;;;;5049279;28;20265;-69
2022/03/16 06:59:54;;;;;;;37.30;19.75;;;5.60;99.90;;;;;;5049447;28;20233;-69
2022/03/16 07:02:22;;;;;;;45.75;21.17;;;5.80;99.90;;;;;;5045957;28;20221;-69
2022/03/16 07:04:50;;;;;;;40.03;20.50;;;5.90;99.90;;;;;;5044647;28;20205;-67
2022/03/16 07:07:18;;;;;;;39.38;20.65;;;6.10;99.90;;;;;;5045796;28;20228;-69
2022/03/16 07:09:47;;;;;;;40.63;20.30;;;6.30;99.90;;;;;;5046782;28;20221;-68
2022/03/16 07:12:15;;;;;;;45.35;23.70;;;6.50;99.90;;;;;;5041743;28;20208;-68
2022/03/16 07:14:44;;;;;;;41.28;21.15;;;6.60;99.90;;;;;;5040144;28;20202;-68
2022/03/16 07:17:12;;;;;;;46.90;21.98;;;6.70;99.90;;;;;;5039935;28;20288;-68
2022/03/16 07:19:40;;;;;;;34.75;21.20;;;6.80;99.90;;;;;;5039509;28;20237;-70
2022/03/16 07:22:08;;;;;;;38.88;19.80;;;6.90;99.90;;;;;;5039376;28;20205;-69
2022/03/16 07:24:36;;;;;;;37.80;20.20;;;7.00;99.90;;;;;;5040329;28;20643;-69
2022/03/16 07:27:06;;;;;;;42.33;21.48;;;7.10;99.90;;;;;;5039536;28;20221;-69
2022/03/16 07:29:34;;;;;;;30.08;18.50;;;7.20;99.90;;;;;;5039364;28;20846;-69
2022/03/16 07:32:03;;;;;;;34.47;19.65;;;7.20;99.90;;;;;;5039317;28;20673;-68
2022/03/16 07:34:31;;;;;;;36.00;19.02;;;7.20;99.90;;;;;;5039454;28;20210;-68
2022/03/16 07:36:59;;;;;;;35.10;19.48;;;7.30;99.90;;;;;;5039637;28;20755;-69
2022/03/16 07:39:27;;;;;;;29.92;20.17;;;7.40;99.90;;;;;;5038917;28;20858;-69
2022/03/16 07:41:55;;;;;;;27.92;16.98;;;7.40;99.90;;;;;;5046611;28;20208;-69
2022/03/16 07:44:24;;;;;;;27.65;17.13;;;7.50;99.90;;;;;;5058074;28;20203;-69
2022/03/16 07:46:53;;;;;;;29.00;18.55;;;7.50;99.90;;;;;;5058211;28;20240;-68
2022/03/16 07:49:21;;;;;;;31.92;19.23;;;7.50;99.90;;;;;;5059121;28;20225;-68
2022/03/16 07:51:48;;;;;;;38.80;19.05;;;7.60;99.90;;;;;;5058597;28;20197;-67
2022/03/16 07:54:16;;;;;;;28.38;18.40;;;7.60;99.90;;;;;;5049111;28;20810;-68
2022/03/16 07:56:45;;;;;;;31.10;16.42;;;7.60;99.90;;;;;;5038377;28;20197;-68
2022/03/16 07:59:14;;;;;;;29.92;17.23;;;7.60;99.90;;;;;;5038226;28;20228;-68
2022/03/16 08:01:44;;;;;;;25.35;15.13;;;7.70;99.90;;;;;;5038243;28;20227;-68
2022/03/16 08:04:12;;;;;;;23.55;15.55;;;7.70;99.90;;;;;;5037725;28;20213;-69
2022/03/16 08:06:40;;;;;;;29.88;16.58;;;7.80;99.90;;;;;;5038032;28;20226;-70
2022/03/16 08:09:08;;;;;;;22.60;15.70;;;7.80;99.90;;;;;;5038212;28;20237;-69
2022/03/16 08:11:36;;;;;;;24.77;16.52;;;7.80;99.90;;;;;;5037535;28;20311;-67
2022/03/16 08:14:04;;;;;;;28.73;14.30;;;7.80;99.90;;;;;;5037884;28;20199;-69
2022/03/16 08:16:31;;;;;;;23.88;14.93;;;7.90;99.90;;;;;;5037707;28;20219;-69
2022/03/16 08:19:01;;;;;;;26.00;14.63;;;7.90;99.90;;;;;;5037935;28;20248;-68
2022/03/16 08:21:29;;;;;;;26.58;16.13;;;7.90;99.90;;;;;;5037813;28;20239;-69
2022/03/16 08:23:57;;;;;;;21.70;15.27;;;8.00;99.90;;;;;;5038615;28;20535;-67
2022/03/16 08:26:25;;;;;;;22.27;14.60;;;8.00;99.90;;;;;;5058242;28;20225;-68
2022/03/16 08:28:53;;;;;;;23.00;14.70;;;8.10;99.90;;;;;;5058111;28;20205;-66
2022/03/16 08:31:21;;;;;;;21.52;14.23;;;8.20;99.90;;;;;;5057455;28;20223;-68
2022/03/16 08:33:50;;;;;;;26.17;14.00;;;8.30;99.90;;;;;;5054384;28;20198;-66
2022/03/16 08:36:19;;;;;;;26.10;15.48;;;8.40;99.90;;;;;;5051704;28;20272;-67
2022/03/16 08:38:47;;;;;;;23.90;15.27;;;8.50;99.90;;;;;;5057654;28;20205;-67
2022/03/16 08:41:15;;;;;;;30.80;14.88;;;8.60;99.90;;;;;;5057428;28;20256;-67
2022/03/16 08:43:43;;;;;;;23.55;15.30;;;8.70;99.90;;;;;;5057610;28;20215;-68
2022/03/16 08:46:11;;;;;;;28.77;13.73;;;8.80;99.90;;;;;;5057838;28;20300;-68
2022/03/16 08:48:39;;;;;;;24.48;14.50;;;8.80;99.90;;;;;;5057410;28;20228;-68
2022/03/16 08:51:08;;;;;;;22.35;14.35;;;8.90;99.90;;;;;;5057714;28;20603;-68
2022/03/16 08:53:37;;;;;;;23.52;13.15;;;8.90;99.90;;;;;;5057572;28;20771;-69
2022/03/16 08:56:05;;;;;;;21.55;12.70;;;8.90;99.90;;;;;;5061818;28;20232;-67
2022/03/16 08:58:33;;;;;;;23.67;12.27;;;9.00;99.90;;;;;;5078045;28;20207;-67
2022/03/16 09:01:01;;;;;;;17.30;12.02;;;9.00;99.90;;;;;;5077975;28;20309;-68
2022/03/16 09:03:29;;;;;;;20.13;11.45;;;9.00;99.90;;;;;;5077490;28;20816;-68
2022/03/16 09:06:00;;;;;;;16.17;11.43;;;9.00;99.90;;;;;;5078420;28;20281;-68
2022/03/16 09:08:28;;;;;;;15.30;10.05;;;9.10;99.90;;;;;;5077562;28;20916;-67
2022/03/16 09:10:57;;;;;;;18.98;11.88;;;9.10;99.90;;;;;;5081816;28;20222;-67
2022/03/16 09:13:25;;;;;;;16.60;11.30;;;9.20;99.90;;;;;;5082178;28;20255;-66
2022/03/16 09:15:59;;;;;;;16.20;10.68;;;9.30;99.90;;;;;;5081095;28;20265;-68
2022/03/16 09:18:27;;;;;;;18.10;11.95;;;9.30;99.90;;;;;;5081446;28;20197;-69
2022/03/16 09:21:00;;;;;;;18.42;10.68;;;9.30;99.90;;;;;;5081457;28;20235;-68
2022/03/16 09:23:31;;;;;;;20.33;12.07;;;9.30;99.90;;;;;;5083040;28;20204;-70
2022/03/16 09:26:00;;;;;;;20.73;11.10;;;9.40;99.90;;;;;;5081916;28;20856;-70
2022/03/16 09:28:29;;;;;;;16.95;10.00;;;9.50;99.90;;;;;;5081861;28;20312;-71
2022/03/16 09:30:56;;;;;;;15.07;12.40;;;9.60;99.90;;;;;;5081481;28;20224;-70
2022/03/16 09:33:24;;;;;;;17.67;10.13;;;9.60;99.90;;;;;;5081285;28;20834;-70
2022/03/16 09:35:52;;;;;;;17.52;9.85;;;9.70;99.90;;;;;;5081556;28;20200;-71
2022/03/16 09:38:21;;;;;;;13.80;9.57;;;9.70;99.90;;;;;;5081730;28;20196;-73
2022/03/16 09:40:53;;;;;;;15.80;10.13;;;9.80;99.90;;;;;;5080560;28;20224;-70
2022/03/16 09:43:23;;;;;;;16.95;10.45;;;9.80;99.90;;;;;;5081228;28;20307;-70
2022/03/16 09:45:56;;;;;;;13.40;9.90;;;9.90;99.90;;;;;;5080781;28;20208;-71
2022/03/16 09:48:24;;;;;;;15.80;9.82;;;9.90;99.90;;;;;;5081482;28;20216;-70
2022/03/16 09:50:54;;;;;;;18.38;10.20;;;9.90;99.90;;;;;;5081889;28;20298;-72
2022/03/16 09:53:23;;;;;;;16.42;10.75;;;10.00;99.90;;;;;;5081028;28;20454;-70
2022/03/16 09:55:52;;;;;;;20.33;11.90;;;10.00;99.90;;;;;;5080453;28;20206;-69
2022/03/16 09:58:20;;;;;;;13.93;9.88;;;10.00;99.90;;;;;;5080947;28;20755;-69
2022/03/16 10:00:50;;;;;;;18.95;10.63;;;10.10;99.90;;;;;;5080306;28;20220;-68
2022/03/16 10:03:18;;;;;;;19.38;11.20;;;10.40;99.90;;;;;;5080659;28;20239;-69
2022/03/16 10:05:48;;;;;;;12.55;10.20;;;10.50;99.90;;;;;;5080553;28;20211;-69
2022/03/16 10:08:26;;;;;;;14.40;9.63;;;10.70;99.90;;;;;;5080906;28;20592;-69
2022/03/16 10:13:52;;;;;;;18.60;11.97;;;10.70;99.90;;;;;;5079140;28;20537;-69
2022/03/16 10:16:22;;;;;;;15.20;10.13;;;10.70;99.90;;;;;;5079147;28;21024;-69
2022/03/16 10:18:54;;;;;;;17.40;10.18;;;10.60;99.90;;;;;;5078912;28;20218;-68
2022/03/16 10:21:23;;;;;;;17.20;10.85;;;10.60;99.90;;;;;;5078921;28;20235;-70
2022/03/16 10:23:51;;;;;;;16.35;10.32;;;10.60;99.90;;;;;;5078702;28;20362;-68
2022/03/16 10:26:21;;;;;;;14.45;9.90;;;10.60;99.90;;;;;;5079870;28;20231;-69
2022/03/16 10:28:49;;;;;;;14.43;10.82;;;10.70;99.90;;;;;;5079397;28;20212;-69
2022/03/16 10:31:19;;;;;;;19.10;10.70;;;10.80;99.90;;;;;;5079739;28;20464;-69
2022/03/16 10:33:53;;;;;;;14.77;10.70;;;10.70;99.90;;;;;;5078567;28;20973;-70
2022/03/16 10:36:22;;;;;;;16.53;11.67;;;10.70;99.90;;;;;;5079017;28;20770;-70
2022/03/16 10:38:52;;;;;;;19.35;11.15;;;10.80;99.90;;;;;;5079347;28;20427;-70
2022/03/16 10:46:55;;;;;;;13.53;10.43;;;10.70;99.90;;;;;;5079726;28;20611;-70
2022/03/16 10:49:26;;;;;;;13.53;9.00;;;10.70;99.90;;;;;;5079587;28;20478;-70
2022/03/16 10:52:06;;;;;;;12.23;8.83;;;10.80;99.90;;;;;;5079119;28;20461;-70
2022/03/16 10:54:35;;;;;;;13.00;8.90;;;10.80;99.90;;;;;;5079333;28;20656;-69
2022/03/16 10:57:05;;;;;;;11.20;7.93;;;11.00;99.90;;;;;;5079354;28;21078;-69
2022/03/16 10:59:35;;;;;;;13.90;7.70;;;11.00;99.90;;;;;;5081274;28;20446;-69
2022/03/16 11:02:04;;;;;;;11.20;7.60;;;11.10;99.90;;;;;;5079121;28;20434;-69
2022/03/16 11:04:36;;;;;;;10.60;7.40;;;11.10;99.90;;;;;;5078903;28;20450;-68
2022/03/16 11:07:06;;;;;;;10.50;7.50;;;11.20;99.90;;;;;;5078853;28;20461;-68
2022/03/16 11:09:35;;;;;;;13.50;7.00;;;11.40;99.90;;;;;;5078635;28;21096;-68
2022/03/16 11:14:58;;;;;;;13.40;7.60;;;11.60;99.90;;;;;;5077762;28;20861;-68
2022/03/16 11:17:27;;;;;;;11.93;7.47;;;11.80;99.90;;;;;;5078394;28;20918;-69
2022/03/16 11:19:59;;;;;;;9.23;6.50;;;11.80;99.90;;;;;;5078418;28;20459;-69
2022/03/16 11:22:30;;;;;;;10.57;7.20;;;11.90;99.90;;;;;;5078694;28;20836;-69
2022/03/16 11:25:02;;;;;;;10.20;6.20;;;12.10;99.90;;;;;;5078869;28;20442;-69
2022/03/16 11:27:41;;;;;;;11.80;6.57;;;12.20;99.90;;;;;;5078430;28;20952;-69
2022/03/16 11:30:25;;;;;;;12.13;6.77;;;12.30;99.90;;;;;;5078146;28;20765;-68
2022/03/16 11:32:57;;;;;;;11.70;6.00;;;12.40;99.90;;;;;;5078082;28;20438;-68
2022/03/16 11:35:31;;;;;;;9.80;5.90;;;12.50;99.90;;;;;;5077781;28;21034;-69
2022/03/16 11:38:09;;;;;;;10.10;5.53;;;12.70;99.90;;;;;;5078714;28;20477;-68
2022/03/16 11:40:40;;;;;;;11.10;6.10;;;12.80;99.90;;;;;;5077877;28;20473;-70
2022/03/16 11:43:16;;;;;;;8.47;6.33;;;13.00;99.90;;;;;;5078596;28;20496;-68
2022/03/16 11:45:46;;;;;;;11.47;7.20;;;13.10;99.90;;;;;;5078342;28;20539;-69
2022/03/16 11:48:53;;;;;;;8.00;5.20;;;13.20;99.90;;;;;;5078138;28;20566;-69
2022/03/16 11:51:25;;;;;;;11.93;6.43;;;13.10;99.90;;;;;;5078930;28;20553;-70
2022/03/16 11:54:13;;;;;;;10.20;5.83;;;13.10;99.90;;;;;;5078360;28;20450;-68
2022/03/16 11:56:47;;;;;;;11.30;6.10;;;13.10;99.90;;;;;;5078354;28;21100;-69
2022/03/16 11:59:40;;;;;;;9.37;6.17;;;13.20;99.90;;;;;;5078628;28;20434;-69
2022/03/16 12:02:22;;;;;;;9.30;6.60;;;13.30;99.90;;;;;;5079163;28;20526;-70
2022/03/16 12:04:51;;;;;;;14.90;9.13;;;13.40;99.90;;;;;;5078874;28;20871;-70
2022/03/16 12:07:22;;;;;;;16.13;9.17;;;13.30;99.90;;;;;;5079004;28;20438;-69
2022/03/16 12:09:57;;;;;;;12.93;9.33;;;13.20;99.90;;;;;;5079142;28;20610;-70
2022/03/16 12:15:22;;;;;;;10.90;8.17;;;13.10;99.90;;;;;;5077590;28;20442;-70
2022/03/16 12:18:28;;;;;;;12.33;7.00;;;13.20;99.90;;;;;;5077577;28;20716;-71
2022/03/16 12:21:03;;;;;;;9.60;7.50;;;13.10;99.90;;;;;;5077026;28;20591;-70
2022/03/16 12:23:58;;;;;;;10.50;7.07;;;13.00;99.90;;;;;;5076845;28;20442;-70
2022/03/16 12:26:29;;;;;;;10.30;7.40;;;13.10;99.90;;;;;;5077554;28;20438;-69
2022/03/16 12:29:07;;;;;;;10.47;7.93;;;13.10;99.90;;;;;;5077143;28;20721;-70
2022/03/16 12:31:42;;;;;;;13.20;7.60;;;13.10;99.90;;;;;;5078646;28;20446;-69
2022/03/16 12:34:14;;;;;;;16.30;8.00;;;13.20;99.90;;;;;;5078058;28;20899;-70
2022/03/16 12:36:42;;;;;;;8.03;6.67;;;13.20;99.90;;;;;;5077705;28;20461;-70
2022/03/16 12:39:13;;;;;;;10.60;6.20;;;13.30;99.90;;;;;;5077497;28;20848;-70
2022/03/16 12:44:42;;;;;;;11.50;7.77;;;13.40;99.90;;;;;;5078265;28;20786;-69
2022/03/16 12:47:16;;;;;;;7.57;6.07;;;13.30;99.90;;;;;;5080814;28;20459;-69
2022/03/16 12:49:46;;;;;;;8.30;6.20;;;13.40;99.90;;;;;;5080547;28;20477;-69
2022/03/16 12:52:14;;;;;;;10.80;7.77;;;13.40;99.90;;;;;;5080658;28;20450;-69
2022/03/16 12:54:43;;;;;;;9.87;6.83;;;13.30;99.90;;;;;;5080865;28;20720;-69
2022/03/16 12:57:12;;;;;;;8.00;7.20;;;13.30;99.90;;;;;;5081545;28;20429;-70
2022/03/16 12:59:47;;;;;;;9.40;7.60;;;13.20;99.90;;;;;;5082148;28;20537;-69
2022/03/16 13:02:19;;;;;;;8.43;6.93;;;13.30;99.90;;;;;;5081446;28;20537;-68
2022/03/16 13:04:52;;;;;;;7.90;6.23;;;13.20;99.90;;;;;;5080674;28;20466;-67
2022/03/16 13:07:20;;;;;;;9.30;7.60;;;13.20;99.90;;;;;;5081076;28;20443;-69